Time;durP1;ratioP1;P1;durP2;ratioP2;P2;SDS_P1;SDS_P2;PMS_P1;PMS_P2;Temp;Humidity;BMP_temperature;BMP_pressure;BME280_temperature;BME280_humidity;BME280_pressure;Samples;Min_cycle;Max_cycle;Signal;HPM_P1;HPM_P2
2021/06/19 00:00:13;;;;;;;30.77;28.70;;;;;;;;;;5114127;28;20902;-91
2021/06/19 00:02:41;;;;;;;30.97;29.07;;;;;;;;;;5113012;28;20778;-92
2021/06/19 00:05:09;;;;;;;31.00;28.80;;;;;;;;;;5113874;28;20425;-91
2021/06/19 00:07:36;;;;;;;32.90;30.70;;;;;;;;;;5112650;28;20452;-91
2021/06/19 00:10:04;;;;;;;32.17;30.27;;;;;;;;;;5113663;28;20432;-91
2021/06/19 00:12:34;;;;;;;32.17;30.10;;;;;;;;;;5114407;28;20511;-91
2021/06/19 00:15:02;;;;;;;30.73;28.70;;;;;;;;;;5113744;28;20527;-91
2021/06/19 00:17:30;;;;;;;32.30;30.17;;;;;;;;;;5117441;28;20465;-92
2021/06/19 00:19:57;;;;;;;32.70;30.70;;;;;;;;;;5117522;28;20418;-91
2021/06/19 00:22:25;;;;;;;32.27;30.07;;;;;;;;;;5117843;28;20422;-91
2021/06/19 00:24:52;;;;;;;32.83;30.70;;;;;;;;;;5117468;28;20440;-91
2021/06/19 00:27:20;;;;;;;31.20;29.20;;;;;;;;;;5117463;28;20451;-91
2021/06/19 00:29:47;;;;;;;31.50;29.60;;;;;;;;;;5117414;28;20770;-91
2021/06/19 00:32:16;;;;;;;32.20;29.97;;;;;;;;;;5117090;28;20479;-91
2021/06/19 00:34:43;;;;;;;31.77;29.70;;;;;;;;;;5116309;28;20892;-91
2021/06/19 00:37:11;;;;;;;32.13;30.10;;;;;;;;;;5117013;28;20453;-91
2021/06/19 00:39:38;;;;;;;33.67;31.57;;;;;;;;;;5117748;28;20452;-91
2021/06/19 00:42:06;;;;;;;33.03;30.60;;;;;;;;;;5117287;28;20415;-91
2021/06/19 00:44:33;;;;;;;30.27;28.47;;;;;;;;;;5117105;28;20440;-91
2021/06/19 00:47:01;;;;;;;30.43;28.53;;;;;;;;;;5117100;28;20422;-91
2021/06/19 00:49:29;;;;;;;30.93;28.50;;;;;;;;;;5117053;28;20472;-90
2021/06/19 00:51:57;;;;;;;32.53;30.23;;;;;;;;;;5115872;28;20911;-91
2021/06/19 00:54:24;;;;;;;32.57;30.47;;;;;;;;;;5115981;28;20434;-91
2021/06/19 00:56:52;;;;;;;32.90;30.60;;;;;;;;;;5117007;28;20440;-90
2021/06/19 00:59:19;;;;;;;32.00;29.90;;;;;;;;;;5117092;28;20417;-91
2021/06/19 01:01:47;;;;;;;30.80;28.90;;;;;;;;;;5116694;28;20407;-91
2021/06/19 01:04:14;;;;;;;30.87;28.73;;;;;;;;;;5116571;28;20406;-91
2021/06/19 01:06:44;;;;;;;32.00;30.00;;;;;;;;;;5116860;28;20422;-91
2021/06/19 01:09:12;;;;;;;31.83;29.53;;;;;;;;;;5116325;28;20492;-91
2021/06/19 01:11:40;;;;;;;31.70;29.60;;;;;;;;;;5116365;28;20459;-91
2021/06/19 01:14:08;;;;;;;31.63;29.53;;;;;;;;;;5116525;28;20799;-90
2021/06/19 01:16:35;;;;;;;32.63;30.47;;;;;;;;;;5116302;28;20788;-91
2021/06/19 01:19:03;;;;;;;31.83;29.73;;;;;;;;;;5116717;28;20429;-91
2021/06/19 01:21:31;;;;;;;33.50;31.20;;;;;;;;;;5116669;28;20531;-91
2021/06/19 01:24:00;;;;;;;34.90;32.30;;;;;;;;;;5116078;28;20913;-91
2021/06/19 01:26:29;;;;;;;32.10;30.10;;;;;;;;;;5116279;28;20421;-91
2021/06/19 01:28:58;;;;;;;34.10;31.70;;;;;;;;;;5116353;28;20514;-91
2021/06/19 01:31:26;;;;;;;32.37;30.37;;;;;;;;;;5116376;28;20436;-91
2021/06/19 01:33:54;;;;;;;31.33;29.33;;;;;;;;;;5115892;28;20545;-90
2021/06/19 01:36:22;;;;;;;33.37;30.87;;;;;;;;;;5116463;28;20425;-91
2021/06/19 01:38:50;;;;;;;32.23;30.13;;;;;;;;;;5115850;28;20421;-91
2021/06/19 01:41:18;;;;;;;33.17;30.87;;;;;;;;;;5116229;28;20426;-90
2021/06/19 01:43:48;;;;;;;33.00;30.70;;;;;;;;;;5115865;28;20419;-91
2021/06/19 01:46:16;;;;;;;32.60;30.60;;;;;;;;;;5115965;28;20414;-91
2021/06/19 01:48:43;;;;;;;31.17;29.30;;;;;;;;;;5115670;28;20451;-91
2021/06/19 01:51:12;;;;;;;32.80;30.70;;;;;;;;;;5115925;28;20417;-91
2021/06/19 01:53:39;;;;;;;33.17;31.13;;;;;;;;;;5115898;28;20457;-90
2021/06/19 01:56:07;;;;;;;32.67;30.27;;;;;;;;;;5114344;28;20837;-91
2021/06/19 01:58:35;;;;;;;33.23;31.13;;;;;;;;;;5115790;28;20440;-91
2021/06/19 02:01:04;;;;;;;34.67;31.90;;;;;;;;;;5115437;28;20458;-91
2021/06/19 02:03:32;;;;;;;33.30;31.00;;;;;;;;;;5115616;28;20406;-92
2021/06/19 02:05:59;;;;;;;32.70;30.53;;;;;;;;;;5115388;28;20788;-92
2021/06/19 02:08:26;;;;;;;32.87;30.60;;;;;;;;;;5114980;28;20985;-91
2021/06/19 02:10:54;;;;;;;33.63;30.93;;;;;;;;;;5114319;28;20440;-91
2021/06/19 02:13:21;;;;;;;33.87;31.53;;;;;;;;;;5115496;28;20513;-91
2021/06/19 02:15:49;;;;;;;32.93;30.67;;;;;;;;;;5115052;28;20414;-92
2021/06/19 02:18:18;;;;;;;32.97;30.87;;;;;;;;;;5115454;28;20458;-91
2021/06/19 02:20:48;;;;;;;33.07;30.47;;;;;;;;;;5115235;28;20442;-91
2021/06/19 02:23:15;;;;;;;30.70;28.80;;;;;;;;;;5114985;28;20418;-92
2021/06/19 02:25:43;;;;;;;34.83;32.20;;;;;;;;;;5114847;28;20455;-92
2021/06/19 02:28:11;;;;;;;32.30;30.27;;;;;;;;;;5115276;28;20436;-92
2021/06/19 02:30:40;;;;;;;33.03;30.63;;;;;;;;;;5115071;28;20410;-92
2021/06/19 02:33:08;;;;;;;34.00;31.37;;;;;;;;;;5115086;28;20479;-92
2021/06/19 02:35:37;;;;;;;35.03;32.33;;;;;;;;;;5113836;28;20479;-92
2021/06/19 02:38:05;;;;;;;33.90;31.70;;;;;;;;;;5115638;28;20443;-92
2021/06/19 02:40:33;;;;;;;34.00;31.60;;;;;;;;;;5114490;28;20420;-92
2021/06/19 02:43:00;;;;;;;35.60;33.10;;;;;;;;;;5114637;28;20440;-92
2021/06/19 02:45:28;;;;;;;35.87;33.47;;;;;;;;;;5114797;28;20455;-91
2021/06/19 02:47:56;;;;;;;34.97;32.53;;;;;;;;;;5114834;28;20451;-92
2021/06/19 02:50:25;;;;;;;34.60;32.10;;;;;;;;;;5114936;28;20441;-92
2021/06/19 02:52:54;;;;;;;34.23;31.90;;;;;;;;;;5115131;28;20497;-92
2021/06/19 02:55:23;;;;;;;35.53;33.13;;;;;;;;;;5115074;28;20470;-92
2021/06/19 02:57:50;;;;;;;34.33;31.80;;;;;;;;;;5113564;28;20530;-92
2021/06/19 03:00:19;;;;;;;33.77;31.47;;;;;;;;;;5115121;28;20460;-92
2021/06/19 03:02:47;;;;;;;34.53;32.13;;;;;;;;;;5114559;28;20455;-91
2021/06/19 03:05:15;;;;;;;35.17;32.53;;;;;;;;;;5114407;28;20431;-92
2021/06/19 03:07:43;;;;;;;36.03;33.27;;;;;;;;;;5114605;28;20439;-92
2021/06/19 03:10:14;;;;;;;37.03;34.03;;;;;;;;;;5114537;28;20435;-92
2021/06/19 03:12:41;;;;;;;35.93;33.23;;;;;;;;;;5114463;28;20500;-92
2021/06/19 03:15:10;;;;;;;35.80;33.00;;;;;;;;;;5114537;28;20422;-92
2021/06/19 03:17:37;;;;;;;36.07;33.30;;;;;;;;;;5114518;28;20453;-92
2021/06/19 03:20:05;;;;;;;34.73;32.10;;;;;;;;;;5113375;28;20458;-92
2021/06/19 03:22:42;;;;;;;34.60;32.10;;;;;;;;;;5114277;28;20451;-92
2021/06/19 03:25:12;;;;;;;36.67;33.90;;;;;;;;;;5114115;28;20459;-92
2021/06/19 03:27:39;;;;;;;35.47;32.87;;;;;;;;;;5115035;28;20519;-91
2021/06/19 03:30:07;;;;;;;35.80;33.20;;;;;;;;;;5114172;28;20427;-92
2021/06/19 03:32:35;;;;;;;35.53;32.83;;;;;;;;;;5114244;28;20442;-92
2021/06/19 03:35:02;;;;;;;35.50;33.07;;;;;;;;;;5114276;28;20461;-92
2021/06/19 03:37:30;;;;;;;34.13;31.83;;;;;;;;;;5114322;28;20422;-91
2021/06/19 03:39:57;;;;;;;34.03;31.67;;;;;;;;;;5114259;28;20439;-92
2021/06/19 03:42:26;;;;;;;35.00;32.30;;;;;;;;;;5114274;28;20446;-84
2021/06/19 03:44:53;;;;;;;34.50;32.10;;;;;;;;;;5113771;28;20425;-84
2021/06/19 03:47:21;;;;;;;34.93;32.23;;;;;;;;;;5112859;28;20932;-84
2021/06/19 03:49:48;;;;;;;35.80;33.47;;;;;;;;;;5113765;28;20442;-91
2021/06/19 03:52:16;;;;;;;35.13;32.80;;;;;;;;;;5117303;28;20454;-92
2021/06/19 03:54:43;;;;;;;35.50;33.00;;;;;;;;;;5118081;28;20483;-85
2021/06/19 03:57:10;;;;;;;34.23;31.83;;;;;;;;;;5117735;27;20436;-84
2021/06/19 03:59:39;;;;;;;36.27;33.47;;;;;;;;;;5117386;28;20431;-84
2021/06/19 04:02:07;;;;;;;34.30;32.10;;;;;;;;;;5117518;28;20428;-84
2021/06/19 04:04:36;;;;;;;35.97;33.10;;;;;;;;;;5117647;28;20442;-83
2021/06/19 04:07:05;;;;;;;34.27;31.67;;;;;;;;;;5117935;28;20441;-84
2021/06/19 04:09:32;;;;;;;35.53;33.13;;;;;;;;;;5117024;28;20453;-84
2021/06/19 04:11:59;;;;;;;33.80;31.70;;;;;;;;;;5117156;28;20852;-84
2021/06/19 04:14:26;;;;;;;33.83;31.40;;;;;;;;;;5117118;28;20992;-83
2021/06/19 04:16:55;;;;;;;32.90;30.60;;;;;;;;;;5117483;28;20427;-84
2021/06/19 04:19:23;;;;;;;33.93;31.67;;;;;;;;;;5117033;28;20438;-84
2021/06/19 04:21:50;;;;;;;33.43;31.23;;;;;;;;;;5117744;28;20418;-83
2021/06/19 04:24:18;;;;;;;33.67;31.30;;;;;;;;;;5117809;28;20478;-84
2021/06/19 04:26:45;;;;;;;34.70;32.47;;;;;;;;;;5117078;28;20458;-84
2021/06/19 04:29:13;;;;;;;32.43;29.97;;;;;;;;;;5117137;28;20462;-84
2021/06/19 04:31:40;;;;;;;33.80;31.20;;;;;;;;;;5115801;28;20466;-84
2021/06/19 04:34:10;;;;;;;34.30;32.00;;;;;;;;;;5117042;28;20483;-84
2021/06/19 04:36:37;;;;;;;33.13;30.47;;;;;;;;;;5117175;28;20513;-84
2021/06/19 04:39:05;;;;;;;33.33;30.90;;;;;;;;;;5116616;28;20432;-84
2021/06/19 04:41:36;;;;;;;34.03;31.63;;;;;;;;;;5116897;28;20470;-84
2021/06/19 04:44:18;;;;;;;34.40;31.60;;;;;;;;;;5116489;28;20425;-84
2021/06/19 04:46:46;;;;;;;34.67;32.13;;;;;;;;;;5116743;28;20435;-83
2021/06/19 04:49:15;;;;;;;33.50;31.10;;;;;;;;;;5116366;28;20444;-84
2021/06/19 04:51:43;;;;;;;36.90;34.20;;;;;;;;;;5116436;28;20916;-84
2021/06/19 04:54:10;;;;;;;36.17;33.73;;;;;;;;;;5116610;28;20845;-84
2021/06/19 04:56:39;;;;;;;34.70;32.27;;;;;;;;;;5116287;28;20424;-84
2021/06/19 04:59:07;;;;;;;35.10;32.50;;;;;;;;;;5116447;28;20497;-84
2021/06/19 05:01:34;;;;;;;33.17;30.73;;;;;;;;;;5115990;28;20439;-84
2021/06/19 05:04:01;;;;;;;34.37;31.87;;;;;;;;;;5116941;28;20455;-84
2021/06/19 05:06:30;;;;;;;32.83;30.20;;;;;;;;;;5116416;28;20410;-83
2021/06/19 05:08:58;;;;;;;30.43;28.20;;;;;;;;;;5115973;28;20458;-84
2021/06/19 05:11:25;;;;;;;29.80;27.30;;;;;;;;;;5116050;28;20453;-84
2021/06/19 05:13:53;;;;;;;30.33;28.10;;;;;;;;;;5116251;28;20462;-83
2021/06/19 05:16:20;;;;;;;30.03;27.50;;;;;;;;;;5115951;28;20417;-84
2021/06/19 05:18:47;;;;;;;29.87;27.47;;;;;;;;;;5116173;28;20404;-83
2021/06/19 05:21:15;;;;;;;28.93;26.77;;;;;;;;;;5116136;28;20413;-84
2021/06/19 05:23:44;;;;;;;28.17;26.00;;;;;;;;;;5115812;28;20455;-84
2021/06/19 05:26:11;;;;;;;29.33;27.40;;;;;;;;;;5115969;28;20417;-83
2021/06/19 05:28:38;;;;;;;30.03;27.80;;;;;;;;;;5115986;28;20428;-84
2021/06/19 05:31:06;;;;;;;28.40;26.27;;;;;;;;;;5116005;28;20412;-84
2021/06/19 05:33:33;;;;;;;27.57;25.77;;;;;;;;;;5115580;28;20832;-84
2021/06/19 05:36:01;;;;;;;25.63;23.83;;;;;;;;;;5115999;28;20484;-84
2021/06/19 05:38:28;;;;;;;24.90;23.20;;;;;;;;;;5116006;28;20436;-84
2021/06/19 05:40:57;;;;;;;26.37;24.53;;;;;;;;;;5115469;28;20818;-83
2021/06/19 05:43:24;;;;;;;25.03;22.93;;;;;;;;;;5115829;28;20414;-84
2021/06/19 05:45:52;;;;;;;25.73;23.63;;;;;;;;;;5115942;28;20853;-84
2021/06/19 05:48:20;;;;;;;22.93;21.57;;;;;;;;;;5116040;28;20496;-84
2021/06/19 05:50:47;;;;;;;23.30;21.60;;;;;;;;;;5115904;28;20889;-84
2021/06/19 05:53:15;;;;;;;22.70;21.20;;;;;;;;;;5115488;28;20918;-83
2021/06/19 05:55:42;;;;;;;22.40;20.70;;;;;;;;;;5115587;28;20794;-83
2021/06/19 05:58:11;;;;;;;22.40;21.20;;;;;;;;;;5115682;28;20907;-84
2021/06/19 06:00:39;;;;;;;21.93;20.43;;;;;;;;;;5115608;28;20947;-84
2021/06/19 06:03:06;;;;;;;22.97;21.70;;;;;;;;;;5115940;28;20425;-86
2021/06/19 06:05:34;;;;;;;22.23;20.60;;;;;;;;;;5115836;28;20410;-85
2021/06/19 06:08:02;;;;;;;22.03;20.73;;;;;;;;;;5115502;28;20468;-84
2021/06/19 06:10:29;;;;;;;21.70;20.40;;;;;;;;;;5115326;28;20903;-84
2021/06/19 06:12:57;;;;;;;20.77;19.33;;;;;;;;;;5115051;28;20443;-86
2021/06/19 06:15:26;;;;;;;21.33;20.07;;;;;;;;;;5114856;28;20487;-85
2021/06/19 06:17:53;;;;;;;21.23;20.03;;;;;;;;;;5115555;28;20403;-85
2021/06/19 06:20:21;;;;;;;21.03;19.93;;;;;;;;;;5115460;28;20406;-85
2021/06/19 06:22:49;;;;;;;21.10;19.43;;;;;;;;;;5115497;28;20776;-85
2021/06/19 06:25:16;;;;;;;21.27;20.07;;;;;;;;;;5115418;28;20402;-85
2021/06/19 06:27:44;;;;;;;21.30;19.90;;;;;;;;;;5115384;28;20424;-85
2021/06/19 06:30:13;;;;;;;20.67;19.57;;;;;;;;;;5114945;28;20410;-85
2021/06/19 06:32:41;;;;;;;20.77;19.57;;;;;;;;;;5114229;28;20435;-85
2021/06/19 06:35:10;;;;;;;21.03;19.73;;;;;;;;;;5115090;28;20479;-85
2021/06/19 06:37:37;;;;;;;21.13;19.93;;;;;;;;;;5115121;28;20415;-85
2021/06/19 06:40:05;;;;;;;20.43;19.20;;;;;;;;;;5114831;28;20908;-85
2021/06/19 06:42:33;;;;;;;21.10;19.87;;;;;;;;;;5115063;28;20775;-85
2021/06/19 06:45:00;;;;;;;20.17;19.10;;;;;;;;;;5114958;28;20419;-83
2021/06/19 06:47:28;;;;;;;21.00;19.70;;;;;;;;;;5114645;28;20901;-85
2021/06/19 06:49:57;;;;;;;20.90;19.70;;;;;;;;;;5113398;28;20444;-84
2021/06/19 06:52:24;;;;;;;21.17;20.07;;;;;;;;;;5114673;28;20790;-83
2021/06/19 06:54:52;;;;;;;21.43;20.10;;;;;;;;;;5114670;28;20864;-84
2021/06/19 06:57:19;;;;;;;21.10;20.00;;;;;;;;;;5114730;28;20410;-84
2021/06/19 06:59:47;;;;;;;20.20;19.10;;;;;;;;;;5114825;28;20424;-84
2021/06/19 07:02:14;;;;;;;19.63;18.63;;;;;;;;;;5114794;28;20440;-84
2021/06/19 07:04:42;;;;;;;20.77;19.57;;;;;;;;;;5115321;28;20432;-84
2021/06/19 07:07:10;;;;;;;20.33;19.30;;;;;;;;;;5114756;28;20414;-84
2021/06/19 07:09:38;;;;;;;19.90;18.80;;;;;;;;;;5114146;28;20815;-85
2021/06/19 07:12:06;;;;;;;20.50;19.30;;;;;;;;;;5114448;28;20474;-84
2021/06/19 07:14:33;;;;;;;21.40;20.00;;;;;;;;;;5114358;28;20442;-84
2021/06/19 07:17:01;;;;;;;20.37;19.17;;;;;;;;;;5114771;28;20417;-85
2021/06/19 07:19:28;;;;;;;19.70;18.50;;;;;;;;;;5114219;28;20447;-85
2021/06/19 07:21:56;;;;;;;20.70;19.60;;;;;;;;;;5114717;28;20432;-85
2021/06/19 07:24:24;;;;;;;20.57;19.43;;;;;;;;;;5114376;28;20425;-85
2021/06/19 07:26:52;;;;;;;20.67;19.40;;;;;;;;;;5117431;28;20455;-85
2021/06/19 07:29:19;;;;;;;19.40;18.40;;;;;;;;;;5118827;28;20410;-84
2021/06/19 07:31:47;;;;;;;19.60;18.30;;;;;;;;;;5118572;28;20426;-84
2021/06/19 07:34:14;;;;;;;20.17;18.97;;;;;;;;;;5118227;28;20414;-83
2021/06/19 07:36:43;;;;;;;19.73;18.63;;;;;;;;;;5118509;28;20812;-83
2021/06/19 07:39:10;;;;;;;20.10;19.10;;;;;;;;;;5118097;28;20417;-85
2021/06/19 07:41:39;;;;;;;20.13;19.10;;;;;;;;;;5118358;28;20515;-82
2021/06/19 07:44:07;;;;;;;20.80;19.60;;;;;;;;;;5117955;28;20436;-83
2021/06/19 07:46:34;;;;;;;20.80;19.63;;;;;;;;;;5118056;28;20895;-83
2021/06/19 07:49:03;;;;;;;20.53;19.07;;;;;;;;;;5118184;27;20796;-83
2021/06/19 07:51:30;;;;;;;20.93;19.80;;;;;;;;;;5118159;28;20456;-83
2021/06/19 07:53:58;;;;;;;20.83;19.70;;;;;;;;;;5118133;28;20435;-84
2021/06/19 07:56:26;;;;;;;20.97;19.87;;;;;;;;;;5117949;28;20844;-83
2021/06/19 07:58:55;;;;;;;19.70;18.70;;;;;;;;;;5117735;28;20411;-84
2021/06/19 08:01:22;;;;;;;19.80;18.60;;;;;;;;;;5118031;28;20406;-81
2021/06/19 08:03:50;;;;;;;20.53;19.33;;;;;;;;;;5117791;28;20437;-83
2021/06/19 08:06:17;;;;;;;21.20;19.93;;;;;;;;;;5117896;28;20426;-84
2021/06/19 08:08:44;;;;;;;21.90;20.70;;;;;;;;;;5117602;28;20450;-87
2021/06/19 08:11:12;;;;;;;21.33;20.03;;;;;;;;;;5117881;28;20438;-87
2021/06/19 08:13:39;;;;;;;21.57;20.47;;;;;;;;;;5118067;27;20399;-87
2021/06/19 08:16:10;;;;;;;21.63;20.30;;;;;;;;;;5117812;28;20450;-87
2021/06/19 08:18:37;;;;;;;21.63;20.40;;;;;;;;;;5118033;28;20406;-87
2021/06/19 08:21:05;;;;;;;21.10;19.90;;;;;;;;;;5118484;28;20448;-86
2021/06/19 08:23:33;;;;;;;20.57;19.20;;;;;;;;;;5117972;28;20414;-86
2021/06/19 08:26:00;;;;;;;20.40;19.30;;;;;;;;;;5116708;28;20418;-86
2021/06/19 08:28:27;;;;;;;20.20;19.10;;;;;;;;;;5117777;28;20415;-86
2021/06/19 08:30:55;;;;;;;21.30;20.20;;;;;;;;;;5117679;28;20458;-86
2021/06/19 08:33:24;;;;;;;20.50;19.30;;;;;;;;;;5117580;28;20431;-86
2021/06/19 08:35:51;;;;;;;20.93;19.63;;;;;;;;;;5117601;28;20457;-86
2021/06/19 08:38:18;;;;;;;21.23;20.03;;;;;;;;;;5116600;28;20450;-86
2021/06/19 08:40:46;;;;;;;21.10;19.70;;;;;;;;;;5116496;28;20960;-86
2021/06/19 08:43:13;;;;;;;21.07;19.90;;;;;;;;;;5117671;28;20403;-86
2021/06/19 08:45:41;;;;;;;20.77;19.57;;;;;;;;;;5117321;28;20414;-87
2021/06/19 08:48:09;;;;;;;20.43;19.23;;;;;;;;;;5117489;28;20410;-86
2021/06/19 08:50:40;;;;;;;21.23;19.83;;;;;;;;;;5115970;28;20480;-86
2021/06/19 08:53:07;;;;;;;19.87;18.67;;;;;;;;;;5117112;28;20415;-86
2021/06/19 08:55:35;;;;;;;20.70;19.50;;;;;;;;;;5116794;28;20973;-86
2021/06/19 08:58:02;;;;;;;21.27;20.07;;;;;;;;;;5116932;28;20443;-86
2021/06/19 09:00:29;;;;;;;20.43;19.23;;;;;;;;;;5117257;28;20545;-86
2021/06/19 09:02:57;;;;;;;20.90;19.80;;;;;;;;;;5117239;28;20414;-86
2021/06/19 09:05:29;;;;;;;21.20;19.90;;;;;;;;;;5117082;28;20421;-86
2021/06/19 09:07:58;;;;;;;20.97;19.60;;;;;;;;;;5116885;28;20450;-85
2021/06/19 09:10:26;;;;;;;21.70;20.47;;;;;;;;;;5116542;28;20888;-84
2021/06/19 09:12:58;;;;;;;20.27;19.13;;;;;;;;;;5116884;28;20451;-86
2021/06/19 09:15:25;;;;;;;21.13;19.93;;;;;;;;;;5116510;28;20453;-86
2021/06/19 09:18:13;;;;;;;21.20;20.00;;;;;;;;;;5116926;28;20447;-86
2021/06/19 09:20:47;;;;;;;20.80;19.70;;;;;;;;;;5117019;28;20440;-85
2021/06/19 09:23:16;;;;;;;20.80;19.70;;;;;;;;;;5116765;28;20821;-86
2021/06/19 09:25:43;;;;;;;20.87;19.67;;;;;;;;;;5116526;28;20419;-85
2021/06/19 09:28:11;;;;;;;21.40;20.20;;;;;;;;;;5116285;28;20425;-86
2021/06/19 09:30:39;;;;;;;20.43;19.23;;;;;;;;;;5116607;28;20890;-85
2021/06/19 09:33:08;;;;;;;20.50;19.30;;;;;;;;;;5116265;27;20443;-86
2021/06/19 09:35:36;;;;;;;21.10;19.90;;;;;;;;;;5116437;28;20495;-85
2021/06/19 09:38:05;;;;;;;22.40;20.70;;;;;;;;;;5116079;28;20422;-86
2021/06/19 09:40:35;;;;;;;22.00;20.70;;;;;;;;;;5116120;28;20506;-86
2021/06/19 09:43:09;;;;;;;20.90;19.70;;;;;;;;;;5116321;28;20418;-85
2021/06/19 09:45:37;;;;;;;21.13;19.93;;;;;;;;;;5115948;28;20913;-86
2021/06/19 09:48:05;;;;;;;20.23;19.13;;;;;;;;;;5115684;28;20440;-85
2021/06/19 09:50:33;;;;;;;20.73;19.53;;;;;;;;;;5115077;28;20420;-84
2021/06/19 09:53:13;;;;;;;20.00;18.80;;;;;;;;;;5115875;28;20433;-88
2021/06/19 09:56:01;;;;;;;21.17;20.07;;;;;;;;;;5118766;27;20448;-88
2021/06/19 09:58:39;;;;;;;20.63;19.43;;;;;;;;;;5116503;28;20410;-87
2021/06/19 10:01:06;;;;;;;21.80;20.40;;;;;;;;;;5116516;28;20489;-88
2021/06/19 10:03:49;;;;;;;22.60;21.20;;;;;;;;;;5115165;27;20437;-87
2021/06/19 10:06:16;;;;;;;21.50;20.30;;;;;;;;;;5116318;28;20433;-87
2021/06/19 10:08:45;;;;;;;22.17;20.77;;;;;;;;;;5115707;28;20481;-87
2021/06/19 10:11:14;;;;;;;21.30;20.00;;;;;;;;;;5115968;28;20527;-81
2021/06/19 10:13:42;;;;;;;22.27;21.07;;;;;;;;;;5114968;28;20438;-82
2021/06/19 10:16:10;;;;;;;20.80;19.53;;;;;;;;;;5114748;28;20448;-82
2021/06/19 10:18:39;;;;;;;20.70;19.47;;;;;;;;;;5114883;28;20412;-82
2021/06/19 10:21:07;;;;;;;20.90;19.80;;;;;;;;;;5114065;28;20904;-87
2021/06/19 10:23:34;;;;;;;21.67;20.37;;;;;;;;;;5114815;28;20429;-83
2021/06/19 10:26:02;;;;;;;21.87;20.60;;;;;;;;;;5114594;28;20414;-82
2021/06/19 10:28:31;;;;;;;21.00;19.70;;;;;;;;;;5115067;28;20409;-83
2021/06/19 10:30:59;;;;;;;21.30;20.10;;;;;;;;;;5114834;28;20431;-82
2021/06/19 10:33:27;;;;;;;21.10;19.60;;;;;;;;;;5114685;28;20791;-83
2021/06/19 10:35:55;;;;;;;20.63;19.43;;;;;;;;;;5113731;28;20464;-83
2021/06/19 10:38:23;;;;;;;21.50;20.30;;;;;;;;;;5114481;28;20419;-83
2021/06/19 10:40:53;;;;;;;21.67;20.37;;;;;;;;;;5114493;28;20441;-82
2021/06/19 10:43:22;;;;;;;21.43;20.23;;;;;;;;;;5114521;28;20784;-82
2021/06/19 10:45:51;;;;;;;23.00;21.00;;;;;;;;;;5114325;28;20509;-83
2021/06/19 10:48:19;;;;;;;21.60;20.40;;;;;;;;;;5114426;28;20415;-83
2021/06/19 10:50:47;;;;;;;22.10;20.70;;;;;;;;;;5114397;28;20413;-83
2021/06/19 10:53:15;;;;;;;21.67;20.47;;;;;;;;;;5114827;28;20462;-83
2021/06/19 10:55:53;;;;;;;22.30;20.90;;;;;;;;;;5114204;27;20462;-83
2021/06/19 10:58:25;;;;;;;21.93;20.73;;;;;;;;;;5114969;28;20503;-83
2021/06/19 11:00:54;;;;;;;21.70;20.30;;;;;;;;;;5114007;28;20408;-83
2021/06/19 11:03:37;;;;;;;22.20;20.90;;;;;;;;;;5114566;28;20498;-83
2021/06/19 11:06:18;;;;;;;22.57;21.27;;;;;;;;;;5113257;28;20795;-83
2021/06/19 11:09:16;;;;;;;23.70;22.20;;;;;;;;;;5112712;28;20954;-83
2021/06/19 11:11:47;;;;;;;22.60;21.20;;;;;;;;;;5113045;28;20493;-83
2021/06/19 11:14:15;;;;;;;22.10;20.70;;;;;;;;;;5114053;28;20406;-82
2021/06/19 11:16:52;;;;;;;22.33;20.93;;;;;;;;;;5113998;28;20455;-83
2021/06/19 11:19:44;;;;;;;21.30;20.10;;;;;;;;;;5114366;28;20428;-83
2021/06/19 11:22:30;;;;;;;21.80;20.60;;;;;;;;;;5113985;28;20410;-83
2021/06/19 11:25:19;;;;;;;21.63;20.43;;;;;;;;;;5114271;28;20435;-84
2021/06/19 11:27:50;;;;;;;22.23;20.90;;;;;;;;;;5114302;28;20446;-83
2021/06/19 11:30:32;;;;;;;22.70;21.23;;;;;;;;;;5114346;28;20406;-83
2021/06/19 11:33:15;;;;;;;21.37;20.07;;;;;;;;;;5113756;28;20447;-83
2021/06/19 11:35:44;;;;;;;21.63;20.23;;;;;;;;;;5113587;28;20487;-83
2021/06/19 11:38:12;;;;;;;21.47;20.00;;;;;;;;;;5114237;28;20417;-83
2021/06/19 11:40:40;;;;;;;22.27;21.07;;;;;;;;;;5113998;28;20413;-83
2021/06/19 11:43:08;;;;;;;21.83;20.43;;;;;;;;;;5113803;28;20902;-83
2021/06/19 11:45:36;;;;;;;21.73;20.53;;;;;;;;;;5114067;28;20420;-83
2021/06/19 11:48:04;;;;;;;21.70;20.50;;;;;;;;;;5113647;28;20914;-83
2021/06/19 11:50:31;;;;;;;21.73;20.43;;;;;;;;;;5113694;28;20405;-83
2021/06/19 11:53:20;;;;;;;22.13;20.73;;;;;;;;;;5113756;28;20412;-82
2021/06/19 11:55:47;;;;;;;21.30;20.10;;;;;;;;;;5112538;28;20481;-82
2021/06/19 11:58:15;;;;;;;22.00;20.70;;;;;;;;;;5113709;28;20437;-83
2021/06/19 12:00:53;;;;;;;22.10;20.80;;;;;;;;;;5113993;28;20795;-83
2021/06/19 12:03:22;;;;;;;21.70;20.40;;;;;;;;;;5113709;28;20467;-83
2021/06/19 12:05:50;;;;;;;22.20;20.97;;;;;;;;;;5113941;28;20417;-83
2021/06/19 12:08:25;;;;;;;22.40;21.10;;;;;;;;;;5113396;28;20500;-83
2021/06/19 12:10:53;;;;;;;21.80;20.60;;;;;;;;;;5113594;28;20516;-83
2021/06/19 12:13:30;;;;;;;21.43;20.23;;;;;;;;;;5116529;28;20417;-83
2021/06/19 12:16:01;;;;;;;22.30;20.60;;;;;;;;;;5117210;28;20451;-83
2021/06/19 12:18:28;;;;;;;21.20;20.00;;;;;;;;;;5117211;28;20484;-83
2021/06/19 12:21:02;;;;;;;21.80;20.57;;;;;;;;;;5116159;28;20433;-83
2021/06/19 12:23:35;;;;;;;21.83;20.63;;;;;;;;;;5116301;28;20418;-87
2021/06/19 12:26:05;;;;;;;21.07;19.87;;;;;;;;;;5117542;28;20438;-83
2021/06/19 12:28:33;;;;;;;21.50;20.30;;;;;;;;;;5117018;28;20445;-82
2021/06/19 12:31:00;;;;;;;21.47;20.10;;;;;;;;;;5117320;28;20464;-82
2021/06/19 12:33:29;;;;;;;21.83;20.50;;;;;;;;;;5117377;27;20435;-82
2021/06/19 12:35:56;;;;;;;21.33;20.03;;;;;;;;;;5116928;28;20471;-84
2021/06/19 12:38:24;;;;;;;21.37;20.17;;;;;;;;;;5117946;28;20404;-86
2021/06/19 12:40:53;;;;;;;21.60;20.40;;;;;;;;;;5117208;28;20414;-86
2021/06/19 12:43:20;;;;;;;21.87;20.67;;;;;;;;;;5117733;28;20907;-88
2021/06/19 12:45:49;;;;;;;21.53;20.27;;;;;;;;;;5117575;28;20465;-86
2021/06/19 12:48:20;;;;;;;21.03;19.83;;;;;;;;;;5117372;28;20424;-86
2021/06/19 12:50:48;;;;;;;21.67;20.47;;;;;;;;;;5117302;28;20432;-85
2021/06/19 12:53:16;;;;;;;21.60;20.30;;;;;;;;;;5117106;28;20459;-87
2021/06/19 12:55:45;;;;;;;21.70;20.50;;;;;;;;;;5117354;28;20438;-85
2021/06/19 12:58:15;;;;;;;22.33;20.80;;;;;;;;;;5117192;28;20902;-84
2021/06/19 13:00:44;;;;;;;22.40;21.10;;;;;;;;;;5117167;28;20420;-84
2021/06/19 13:03:12;;;;;;;22.27;20.67;;;;;;;;;;5117055;28;20455;-86
2021/06/19 13:05:49;;;;;;;23.00;21.60;;;;;;;;;;5116938;28;20431;-84
2021/06/19 13:08:18;;;;;;;22.50;21.20;;;;;;;;;;5116551;28;20450;-85
2021/06/19 13:10:45;;;;;;;21.50;20.20;;;;;;;;;;5116440;28;20970;-86
2021/06/19 13:13:15;;;;;;;22.37;21.10;;;;;;;;;;5116890;28;20411;-85
2021/06/19 13:15:57;;;;;;;21.83;20.63;;;;;;;;;;5116853;28;20447;-84
2021/06/19 13:18:24;;;;;;;22.40;21.00;;;;;;;;;;5116488;28;20435;-86
2021/06/19 13:20:59;;;;;;;22.57;21.20;;;;;;;;;;5116964;27;20440;-85
2021/06/19 13:23:27;;;;;;;22.60;21.20;;;;;;;;;;5116175;28;20429;-86
2021/06/19 13:25:59;;;;;;;22.50;21.10;;;;;;;;;;5115019;28;20422;-85
2021/06/19 13:28:58;;;;;;;21.53;20.33;;;;;;;;;;5116626;28;20409;-85
2021/06/19 13:31:31;;;;;;;21.40;20.20;;;;;;;;;;5116145;28;20444;-84
2021/06/19 13:33:59;;;;;;;22.17;20.77;;;;;;;;;;5116060;28;20938;-85
2021/06/19 13:36:31;;;;;;;21.40;20.20;;;;;;;;;;5115951;28;20955;-86
2021/06/19 13:39:04;;;;;;;21.60;20.40;;;;;;;;;;5115925;28;20418;-85
2021/06/19 13:41:34;;;;;;;21.73;20.23;;;;;;;;;;5116612;28;20783;-88
2021/06/19 13:44:03;;;;;;;21.90;20.60;;;;;;;;;;5116293;28;20428;-82
2021/06/19 13:46:31;;;;;;;21.20;19.90;;;;;;;;;;5115677;28;20928;-80
2021/06/19 13:48:59;;;;;;;22.90;21.40;;;;;;;;;;5115439;28;20415;-81
2021/06/19 13:51:26;;;;;;;22.27;20.90;;;;;;;;;;5115839;28;20429;-83
2021/06/19 13:53:54;;;;;;;22.40;21.10;;;;;;;;;;5114754;28;20444;-85
2021/06/19 13:56:22;;;;;;;22.83;21.53;;;;;;;;;;5115199;28;20825;-82
2021/06/19 13:58:49;;;;;;;21.73;20.53;;;;;;;;;;5115219;28;20437;-81
2021/06/19 14:01:19;;;;;;;22.33;20.97;;;;;;;;;;5115055;28;20497;-81
2021/06/19 14:03:46;;;;;;;22.50;21.10;;;;;;;;;;5115557;28;20885;-82
2021/06/19 14:06:14;;;;;;;22.57;21.17;;;;;;;;;;5114042;28;20458;-82
2021/06/19 14:08:43;;;;;;;23.00;21.60;;;;;;;;;;5114843;28;20479;-81
2021/06/19 14:11:11;;;;;;;22.83;21.50;;;;;;;;;;5114946;28;20450;-82
2021/06/19 14:13:38;;;;;;;22.90;21.53;;;;;;;;;;5115405;27;20432;-83
2021/06/19 14:16:06;;;;;;;22.10;20.90;;;;;;;;;;5115602;28;20444;-85
2021/06/19 14:18:35;;;;;;;22.40;21.10;;;;;;;;;;5115647;28;20442;-85
2021/06/19 14:21:03;;;;;;;22.17;20.77;;;;;;;;;;5115465;28;20419;-86
2021/06/19 14:23:32;;;;;;;22.90;21.50;;;;;;;;;;5114999;28;20474;-82
2021/06/19 14:26:01;;;;;;;23.60;22.20;;;;;;;;;;5114658;28;20919;-80